createdAt,value
2023-03-24T00:01:57.128Z,4.10
2023-03-24T00:04:29.649Z,3.00
2023-03-24T00:06:57.884Z,2.73
2023-03-24T00:09:29.324Z,2.37
2023-03-24T00:11:57.352Z,2.83
2023-03-24T00:14:25.646Z,3.23
2023-03-24T00:16:54.698Z,3.00
2023-03-24T00:19:22.562Z,3.10
2023-03-24T00:21:55.969Z,2.90
2023-03-24T00:24:23.714Z,2.73
2023-03-24T00:26:51.794Z,2.70
2023-03-24T00:29:22.396Z,2.80
2023-03-24T00:31:51.465Z,2.60
2023-03-24T00:34:21.604Z,2.80
2023-03-24T00:36:52.621Z,3.10
2023-03-24T00:39:20.847Z,2.70
2023-03-24T00:41:49.519Z,2.60
2023-03-24T00:44:18.818Z,2.60
2023-03-24T00:46:55.273Z,2.73
2023-03-24T00:49:41.930Z,2.97
2023-03-24T00:52:12.321Z,2.70
2023-03-24T00:54:41.908Z,2.53
2023-03-24T00:57:14.992Z,2.87
2023-03-24T00:59:48.976Z,2.97
2023-03-24T01:02:22.775Z,2.70
2023-03-24T01:04:54.665Z,3.00
2023-03-24T01:07:25.009Z,3.07
2023-03-24T01:09:57.545Z,2.67
2023-03-24T01:12:25.332Z,3.23
2023-03-24T01:14:56.428Z,2.63
2023-03-24T01:17:25.484Z,2.87
2023-03-24T01:19:53.121Z,3.20
2023-03-24T01:22:27.891Z,3.13
2023-03-24T01:25:00.719Z,2.57
2023-03-24T01:27:28.502Z,2.87
2023-03-24T01:30:00.268Z,2.63
2023-03-24T01:32:28.141Z,2.93
2023-03-24T01:34:58.146Z,2.40
2023-03-24T01:37:27.152Z,2.80
2023-03-24T01:39:54.891Z,3.13
2023-03-24T01:42:26.304Z,2.87
2023-03-24T01:44:58.806Z,2.73
2023-03-24T01:47:26.702Z,3.00
2023-03-24T01:49:58.020Z,2.70
2023-03-24T01:52:30.605Z,2.53
2023-03-24T01:55:01.454Z,2.77
2023-03-24T01:57:32.272Z,2.93
2023-03-24T02:00:04.920Z,3.67
2023-03-24T02:02:34.898Z,2.97
2023-03-24T02:05:07.277Z,2.90
2023-03-24T02:07:42.672Z,3.30
2023-03-24T02:10:13.454Z,3.03
2023-03-24T02:12:42.588Z,2.93
2023-03-24T02:15:11.430Z,3.03
2023-03-24T02:17:54.615Z,2.73
2023-03-24T02:21:07.663Z,2.67
2023-03-24T02:24:03.565Z,2.83
2023-03-24T02:26:57.117Z,2.80
2023-03-24T02:29:59.826Z,3.20
2023-03-24T02:33:04.947Z,2.63
2023-03-24T02:35:57.197Z,2.90
2023-03-24T02:39:00.469Z,2.80
2023-03-24T02:41:34.389Z,2.30
2023-03-24T02:44:08.050Z,2.57
2023-03-24T02:46:39.392Z,3.33
2023-03-24T02:49:15.174Z,3.47
2023-03-24T02:51:51.817Z,3.50
2023-03-24T02:54:23.947Z,3.10
2023-03-24T02:56:59.644Z,3.50
2023-03-24T02:59:34.661Z,3.50
2023-03-24T03:02:07.726Z,3.10
2023-03-24T03:04:40.391Z,3.03
2023-03-24T03:07:11.637Z,3.80
2023-03-24T03:09:42.671Z,3.50
2023-03-24T03:12:13.514Z,3.17
2023-03-24T03:14:45.792Z,3.10
2023-03-24T03:17:19.741Z,3.03
2023-03-24T03:19:52.547Z,3.00
2023-03-24T03:22:24.262Z,3.67
2023-03-24T03:24:55.377Z,3.67
2023-03-24T03:27:28.009Z,3.60
2023-03-24T03:30:00.182Z,3.00
2023-03-24T03:32:35.578Z,2.63
2023-03-24T03:35:11.028Z,2.77
2023-03-24T03:37:47.214Z,3.77
2023-03-24T03:40:21.493Z,3.50
2023-03-24T03:42:52.335Z,3.10
2023-03-24T03:45:22.357Z,3.03
2023-03-24T03:47:50.891Z,3.37
2023-03-24T03:50:18.784Z,2.90
2023-03-24T03:52:46.461Z,2.80
2023-03-24T03:55:14.919Z,2.80
2023-03-24T03:57:42.843Z,2.77
2023-03-24T04:00:16.650Z,2.90
2023-03-24T04:02:59.214Z,2.67
2023-03-24T04:05:31.973Z,2.70
2023-03-24T04:08:10.323Z,3.73
2023-03-24T04:11:01.784Z,3.30
2023-03-24T04:13:38.847Z,3.00
2023-03-24T04:16:13.179Z,3.33
2023-03-24T04:19:04.444Z,3.13
2023-03-24T04:21:48.794Z,2.67
2023-03-24T04:24:32.750Z,3.20
2023-03-24T04:27:10.226Z,3.77
2023-03-24T04:29:47.767Z,3.13
2023-03-24T04:32:25.020Z,3.50
2023-03-24T04:35:01.290Z,3.43
2023-03-24T04:37:33.340Z,3.53
2023-03-24T04:40:07.302Z,3.17
2023-03-24T04:42:38.335Z,3.87
2023-03-24T04:45:08.074Z,3.43
2023-03-24T04:47:45.428Z,3.80
2023-03-24T04:50:14.435Z,3.80
2023-03-24T04:52:43.698Z,3.50
2023-03-24T04:55:46.375Z,3.80
2023-03-24T04:58:14.130Z,3.60
2023-03-24T05:00:44.259Z,3.87
2023-03-24T05:03:14.480Z,4.00
2023-03-24T05:05:42.803Z,3.97
2023-03-24T05:08:11.512Z,3.67
2023-03-24T05:10:40.893Z,4.00
2023-03-24T05:13:09.073Z,4.27
2023-03-24T05:15:36.926Z,4.30
2023-03-24T05:18:05.636Z,4.10
2023-03-24T05:20:36.924Z,4.40
2023-03-24T05:23:04.741Z,5.33
2023-03-24T05:25:32.384Z,4.50
2023-03-24T05:28:00.525Z,4.67
2023-03-24T05:30:28.165Z,5.07
2023-03-24T05:32:56.054Z,4.60
2023-03-24T05:35:24.645Z,4.87
2023-03-24T05:37:54.631Z,4.87
2023-03-24T05:40:22.202Z,5.23
2023-03-24T05:42:50.876Z,4.40
2023-03-24T05:45:18.621Z,4.47
2023-03-24T05:47:47.553Z,4.67
2023-03-24T05:50:15.420Z,4.97
2023-03-24T05:52:43.016Z,4.90
2023-03-24T05:55:12.104Z,5.53
2023-03-24T05:57:39.673Z,5.00
2023-03-24T06:00:15.132Z,4.43
2023-03-24T06:02:44.297Z,4.50
2023-03-24T06:05:12.394Z,4.30
2023-03-24T06:07:42.326Z,4.47
2023-03-24T06:10:14.260Z,4.27
2023-03-24T06:12:42.262Z,4.47
2023-03-24T06:15:10.964Z,3.90
2023-03-24T06:17:38.652Z,4.80
2023-03-24T06:20:15.519Z,4.27
2023-03-24T06:22:45.097Z,3.53
2023-03-24T06:25:15.193Z,3.60
2023-03-24T06:27:46.183Z,3.70
2023-03-24T06:30:16.293Z,3.50
2023-03-24T06:32:47.674Z,3.30
2023-03-24T06:35:15.906Z,2.77
2023-03-24T06:37:44.688Z,3.10
2023-03-24T06:40:17.414Z,3.00
2023-03-24T06:42:46.918Z,2.87
2023-03-24T06:45:14.773Z,2.50
2023-03-24T06:47:42.525Z,2.60
2023-03-24T06:50:11.160Z,2.20
2023-03-24T06:52:38.765Z,2.37
2023-03-24T06:55:08.297Z,2.33
2023-03-24T06:57:38.891Z,2.43
2023-03-24T07:00:10.274Z,2.57
2023-03-24T07:02:38.383Z,2.77
2023-03-24T07:05:08.911Z,2.30
2023-03-24T07:10:08.538Z,2.43
2023-03-24T07:12:37.789Z,2.70
2023-03-24T07:15:10.325Z,2.90
2023-03-24T07:17:38.325Z,2.77
2023-03-24T07:20:08.452Z,2.90
2023-03-24T07:22:37.105Z,2.83
2023-03-24T07:25:07.007Z,2.77
2023-03-24T07:27:39.448Z,3.10
2023-03-24T07:30:29.982Z,2.47
2023-03-24T07:33:02.102Z,3.03
2023-03-24T07:35:35.301Z,2.90
2023-03-24T07:38:16.033Z,2.43
2023-03-24T07:40:46.750Z,2.60
2023-03-24T07:43:17.086Z,2.17
2023-03-24T07:45:46.353Z,2.67
2023-03-24T07:48:14.350Z,2.40
2023-03-24T07:50:44.282Z,2.70
2023-03-24T07:53:14.954Z,2.50
2023-03-24T07:55:43.162Z,2.63
2023-03-24T07:58:12.980Z,2.43
2023-03-24T08:00:43.482Z,2.83
2023-03-24T08:03:15.812Z,2.73
2023-03-24T08:09:23.506Z,2.53
2023-03-24T08:14:58.708Z,3.07
2023-03-24T08:17:27.747Z,3.00
2023-03-24T08:20:00.382Z,3.40
2023-03-24T08:22:31.429Z,3.07
2023-03-24T08:24:59.265Z,2.63
2023-03-24T08:27:27.074Z,3.50
2023-03-24T08:29:56.431Z,2.80
2023-03-24T08:32:24.444Z,2.93
2023-03-24T08:34:54.204Z,2.17
2023-03-24T08:37:21.885Z,2.53
2023-03-24T08:39:58.493Z,2.73
2023-03-24T08:42:27.752Z,2.03
2023-03-24T08:44:55.450Z,2.70
2023-03-24T08:47:23.441Z,2.77
2023-03-24T08:49:51.319Z,3.53
2023-03-24T08:52:20.244Z,2.93
2023-03-24T08:54:47.948Z,2.70
2023-03-24T08:57:18.097Z,2.40
2023-03-24T08:59:46.348Z,3.23
2023-03-24T09:02:14.611Z,3.23
2023-03-24T09:04:43.354Z,2.30
2023-03-24T09:07:11.465Z,2.17
2023-03-24T09:09:40.673Z,2.33
2023-03-24T09:12:12.168Z,1.80
2023-03-24T09:14:44.075Z,1.50
2023-03-24T09:17:11.799Z,1.40
2023-03-24T09:19:39.837Z,1.40
2023-03-24T09:22:08.265Z,1.00
2023-03-24T09:24:36.232Z,1.60
2023-03-24T09:27:07.579Z,1.23
2023-03-24T09:29:35.224Z,1.27
2023-03-24T09:32:02.994Z,1.10
2023-03-24T09:34:32.019Z,1.50
2023-03-24T09:37:02.240Z,1.67
2023-03-24T09:39:29.943Z,1.17
2023-03-24T09:41:57.770Z,1.40
2023-03-24T09:44:32.823Z,1.33
2023-03-24T09:47:05.760Z,1.50
2023-03-24T09:49:38.795Z,1.17
2023-03-24T09:52:08.098Z,2.07
2023-03-24T09:54:45.480Z,1.10
2023-03-24T09:57:21.331Z,1.13
2023-03-24T09:59:50.564Z,1.13
2023-03-24T10:02:23.198Z,1.10
2023-03-24T10:04:51.195Z,1.17
2023-03-24T10:07:28.153Z,1.10
2023-03-24T10:09:59.292Z,1.20
2023-03-24T10:12:35.995Z,1.30
2023-03-24T10:15:24.339Z,1.10
2023-03-24T10:18:07.126Z,1.00
2023-03-24T10:20:46.475Z,1.37
2023-03-24T10:23:31.682Z,1.33
2023-03-24T10:26:06.622Z,1.30
2023-03-24T10:28:54.809Z,1.13
2023-03-24T10:31:31.702Z,1.20
2023-03-24T10:34:00.555Z,1.63
2023-03-24T10:36:29.294Z,1.17
2023-03-24T10:39:09.561Z,8.97
2023-03-24T10:41:51.016Z,3.80
2023-03-24T10:44:19.764Z,1.20
2023-03-24T10:46:52.128Z,1.60
2023-03-24T10:49:25.469Z,1.47
2023-03-24T10:52:02.124Z,1.47
2023-03-24T10:54:33.395Z,1.53
2023-03-24T10:57:16.215Z,1.20
2023-03-24T10:59:54.568Z,1.13
2023-03-24T11:02:28.322Z,1.30
2023-03-24T11:04:58.230Z,1.33
2023-03-24T11:07:32.458Z,1.20
2023-03-24T11:10:05.385Z,1.20
2023-03-24T11:12:35.884Z,1.23
2023-03-24T11:15:22.905Z,1.30
2023-03-24T11:17:57.611Z,1.10
2023-03-24T11:20:33.501Z,1.10
2023-03-24T11:23:05.291Z,1.10
2023-03-24T11:25:36.009Z,1.50
2023-03-24T11:28:08.744Z,1.00
2023-03-24T11:30:47.092Z,1.27
2023-03-24T11:33:34.447Z,1.20
2023-03-24T11:36:30.167Z,1.40
2023-03-24T11:39:11.834Z,1.00
2023-03-24T11:41:58.428Z,1.30
2023-03-24T11:44:27.780Z,1.13
2023-03-24T11:47:01.260Z,1.50
2023-03-24T11:49:32.843Z,1.33
2023-03-24T11:52:05.083Z,1.00
2023-03-24T11:54:46.566Z,1.30
2023-03-24T11:57:24.281Z,1.40
2023-03-24T12:00:07.576Z,1.50
2023-03-24T12:02:55.001Z,2.10
2023-03-24T12:05:32.392Z,2.10
2023-03-24T12:08:14.914Z,1.70
2023-03-24T12:11:01.053Z,1.30
2023-03-24T12:13:35.782Z,1.20
2023-03-24T12:16:39.928Z,1.17
2023-03-24T12:19:36.515Z,1.10
2023-03-24T12:22:17.355Z,1.23
2023-03-24T12:25:25.474Z,1.00
2023-03-24T12:31:15.658Z,1.20
2023-03-24T12:34:18.982Z,1.20
2023-03-24T12:37:02.201Z,3.33
2023-03-24T12:39:55.687Z,1.10
2023-03-24T12:42:24.971Z,1.10
2023-03-24T12:45:21.394Z,1.13
2023-03-24T12:48:33.060Z,1.10
2023-03-24T12:51:14.345Z,1.30
2023-03-24T12:53:54.784Z,1.30
2023-03-24T13:00:16.351Z,1.00
2023-03-24T13:02:48.195Z,1.20
2023-03-24T13:05:29.547Z,1.07
2023-03-24T13:08:03.340Z,1.17
2023-03-24T13:10:41.254Z,1.20
2023-03-24T13:13:15.090Z,1.33
2023-03-24T13:15:48.622Z,1.10
2023-03-24T13:18:28.013Z,1.20
2023-03-24T13:21:01.293Z,1.27
2023-03-24T13:23:39.593Z,1.20
2023-03-24T13:26:19.018Z,1.13
2023-03-24T13:28:57.261Z,1.03
2023-03-24T13:31:30.608Z,1.37
2023-03-24T13:34:01.642Z,1.23
2023-03-24T13:39:30.716Z,1.17
2023-03-24T13:42:36.446Z,1.37
2023-03-24T13:45:09.794Z,1.40
2023-03-24T13:48:00.460Z,1.33
2023-03-24T13:50:29.646Z,1.20
2023-03-24T13:53:08.926Z,1.60
2023-03-24T13:55:43.090Z,1.30
2023-03-24T13:58:33.230Z,1.60
2023-03-24T14:01:26.976Z,1.10
2023-03-24T14:04:23.486Z,1.10
2023-03-24T14:06:55.092Z,1.20
2023-03-24T14:09:25.468Z,1.30
2023-03-24T14:12:18.083Z,1.00
2023-03-24T14:15:15.999Z,1.40
2023-03-24T14:17:46.035Z,1.43
2023-03-24T14:20:31.633Z,1.57
2023-03-24T14:23:04.953Z,1.00
2023-03-24T14:25:37.373Z,1.20
2023-03-24T14:28:19.077Z,1.20
2023-03-24T14:31:01.928Z,1.30
2023-03-24T14:33:32.001Z,1.20
2023-03-24T14:36:47.904Z,1.70
2023-03-24T14:39:30.095Z,1.20
2023-03-24T14:41:59.254Z,1.53
2023-03-24T14:44:56.160Z,1.20
2023-03-24T14:47:32.340Z,1.30
2023-03-24T14:50:08.970Z,2.03
2023-03-24T14:52:44.230Z,1.60
2023-03-24T14:55:20.730Z,1.27
2023-03-24T14:57:53.369Z,1.30
2023-03-24T15:06:13.478Z,1.30
2023-03-24T15:08:49.905Z,1.40
2023-03-24T15:11:20.825Z,1.10
2023-03-24T15:13:50.852Z,1.40
2023-03-24T15:16:23.670Z,1.40
2023-03-24T15:19:01.233Z,1.17
2023-03-24T15:21:35.199Z,1.37
2023-03-24T15:24:26.495Z,1.30
2023-03-24T15:26:56.215Z,1.30
2023-03-24T15:29:37.185Z,1.47
2023-03-24T15:32:10.987Z,1.33
2023-03-24T15:34:42.533Z,1.17
2023-03-24T15:37:23.163Z,1.33
2023-03-24T15:40:01.723Z,1.03
2023-03-24T15:42:50.677Z,1.20
2023-03-24T15:45:23.437Z,1.40
2023-03-24T15:47:57.835Z,1.33
2023-03-24T15:50:39.378Z,1.20
2023-03-24T15:53:25.669Z,1.20
2023-03-24T15:56:08.266Z,1.17
2023-03-24T15:58:54.691Z,1.17
2023-03-24T16:01:34.199Z,1.50
2023-03-24T16:04:17.067Z,1.37
2023-03-24T16:06:54.217Z,0.90
2023-03-24T16:09:27.714Z,1.00
2023-03-24T16:11:57.384Z,1.20
2023-03-24T16:14:27.115Z,1.47
2023-03-24T16:16:56.288Z,1.47
2023-03-24T16:19:24.498Z,1.20
2023-03-24T16:21:52.557Z,1.43
2023-03-24T16:24:21.104Z,1.30
2023-03-24T16:26:50.260Z,1.27
2023-03-24T16:29:21.612Z,1.30
2023-03-24T16:31:53.423Z,1.27
2023-03-24T16:34:23.102Z,1.20
2023-03-24T16:36:54.159Z,1.20
2023-03-24T16:39:24.965Z,1.10
2023-03-24T16:41:52.652Z,1.30
2023-03-24T16:44:26.928Z,1.20
2023-03-24T16:47:01.503Z,1.20
2023-03-24T16:49:29.188Z,1.23
2023-03-24T16:51:57.955Z,1.13
2023-03-24T16:54:25.680Z,1.30
2023-03-24T16:56:53.436Z,1.30
2023-03-24T16:59:22.673Z,1.23
2023-03-24T17:01:53.136Z,1.43
2023-03-24T17:04:23.603Z,1.50
2023-03-24T17:06:54.254Z,1.50
2023-03-24T17:09:22.738Z,1.00
2023-03-24T17:11:54.774Z,0.90
2023-03-24T17:14:24.134Z,1.10
2023-03-24T17:16:53.409Z,1.10
2023-03-24T17:19:23.286Z,1.40
2023-03-24T17:22:04.175Z,1.20
2023-03-24T17:24:36.593Z,1.40
2023-03-24T17:27:06.466Z,1.57
2023-03-24T17:29:36.846Z,1.40
2023-03-24T17:32:04.771Z,1.40
2023-03-24T17:34:32.446Z,1.20
2023-03-24T17:37:01.324Z,1.30
2023-03-24T17:39:29.129Z,1.20
2023-03-24T17:42:08.321Z,1.53
2023-03-24T17:44:37.366Z,1.77
2023-03-24T17:47:07.829Z,1.23
2023-03-24T17:49:35.392Z,1.77
2023-03-24T17:52:03.083Z,1.93
2023-03-24T17:54:30.952Z,1.60
2023-03-24T17:56:58.544Z,1.57
2023-03-24T17:59:26.494Z,1.70
2023-03-24T18:01:55.548Z,2.37
2023-03-24T18:04:25.682Z,1.37
2023-03-24T18:06:57.458Z,1.63
2023-03-24T18:09:25.363Z,1.20
2023-03-24T18:11:53.171Z,1.10
2023-03-24T18:14:20.832Z,1.50
2023-03-24T18:16:48.576Z,1.20
2023-03-24T18:19:17.826Z,1.60
2023-03-24T18:21:46.645Z,1.57
2023-03-24T18:24:15.015Z,1.70
2023-03-24T18:26:43.064Z,1.90
2023-03-24T18:29:11.347Z,1.53
2023-03-24T18:31:39.078Z,1.50
2023-03-24T18:34:06.959Z,1.60
2023-03-24T18:36:40.217Z,1.50
2023-03-24T18:39:12.869Z,1.93
2023-03-24T18:41:40.932Z,1.23
2023-03-24T18:44:11.015Z,1.40
2023-03-24T18:46:44.782Z,1.70
2023-03-24T18:49:14.104Z,1.40
2023-03-24T18:51:45.164Z,1.33
2023-03-24T18:54:14.740Z,1.40
2023-03-24T18:56:43.970Z,1.90
2023-03-24T18:59:12.612Z,2.00
2023-03-24T19:01:48.589Z,1.50
2023-03-24T19:04:16.822Z,1.50
2023-03-24T19:06:47.149Z,1.20
2023-03-24T19:09:20.076Z,1.47
2023-03-24T19:11:47.906Z,1.90
2023-03-24T19:14:15.612Z,2.00
2023-03-24T19:16:43.116Z,1.80
2023-03-24T19:19:10.893Z,1.80
2023-03-24T19:21:40.233Z,1.70
2023-03-24T19:24:09.823Z,1.17
2023-03-24T19:26:38.834Z,1.70
2023-03-24T19:29:09.799Z,1.77
2023-03-24T19:31:37.689Z,1.40
2023-03-24T19:34:05.726Z,1.50
2023-03-24T19:36:34.249Z,1.20
2023-03-24T19:39:03.007Z,1.00
2023-03-24T19:41:31.937Z,1.53
2023-03-24T19:43:59.551Z,1.20
2023-03-24T19:46:27.637Z,1.90
2023-03-24T19:48:55.472Z,1.90
2023-03-24T19:51:24.732Z,1.60
2023-03-24T19:53:54.737Z,1.10
2023-03-24T19:56:22.696Z,1.67
2023-03-24T19:58:51.909Z,1.20
2023-03-24T20:01:26.939Z,1.30
2023-03-24T20:06:53.195Z,2.67
2023-03-24T20:09:26.618Z,1.60
2023-03-24T20:14:49.996Z,1.63
2023-03-24T20:17:25.006Z,1.47
2023-03-24T20:20:15.847Z,1.50
2023-03-24T20:22:48.861Z,1.57
2023-03-24T20:25:23.358Z,1.10
2023-03-24T20:30:52.449Z,1.63
2023-03-24T20:33:23.585Z,1.67
2023-03-24T20:38:48.677Z,1.37
2023-03-24T20:41:33.197Z,1.10
2023-03-24T20:44:11.068Z,1.17
2023-03-24T20:46:49.272Z,1.50
2023-03-24T20:52:29.045Z,1.10
2023-03-24T20:55:13.303Z,1.50
2023-03-24T20:57:50.562Z,1.03
2023-03-24T21:00:22.044Z,1.20
2023-03-24T21:03:09.287Z,0.90
2023-03-24T21:05:59.836Z,1.20
2023-03-24T21:08:32.281Z,1.30
2023-03-24T21:11:05.116Z,1.00
2023-03-24T21:13:38.038Z,1.10
2023-03-24T21:16:09.034Z,1.20
2023-03-24T21:18:48.218Z,1.47
2023-03-24T21:21:17.090Z,1.10
2023-03-24T21:26:54.205Z,1.47
2023-03-24T21:29:23.600Z,1.33
2023-03-24T21:31:58.170Z,1.10
2023-03-24T21:34:44.697Z,1.00
2023-03-24T21:37:17.566Z,1.40
2023-03-24T21:39:49.672Z,1.10
2023-03-24T21:42:25.432Z,1.10
2023-03-24T21:45:00.816Z,1.33
2023-03-24T21:47:34.880Z,1.17
2023-03-24T21:50:11.674Z,1.20
2023-03-24T21:52:43.413Z,1.00
2023-03-24T21:55:18.252Z,0.90
2023-03-24T22:00:42.426Z,1.30
2023-03-24T22:03:12.580Z,1.10
2023-03-24T22:08:58.955Z,1.00
2023-03-24T22:11:33.551Z,1.13
2023-03-24T22:14:09.149Z,1.10
2023-03-24T22:16:44.487Z,1.27
2023-03-24T22:19:17.980Z,0.90
2023-03-24T22:25:16.284Z,0.83
2023-03-24T22:30:42.565Z,1.10
2023-03-24T22:33:31.693Z,0.90
2023-03-24T22:38:49.644Z,0.90
2023-03-24T22:41:19.381Z,0.90
2023-03-24T22:43:50.368Z,0.90
2023-03-24T22:46:22.326Z,0.83
2023-03-24T22:48:51.090Z,1.00
2023-03-24T22:51:21.708Z,0.80
2023-03-24T22:54:04.308Z,0.77
2023-03-24T22:56:32.574Z,0.70
2023-03-24T22:59:03.030Z,1.17
2023-03-24T23:04:14.990Z,1.23
2023-03-24T23:06:44.211Z,0.83
2023-03-24T23:09:18.465Z,0.83
2023-03-24T23:11:49.846Z,0.83
2023-03-24T23:14:20.508Z,0.93
2023-03-24T23:16:49.014Z,0.90
2023-03-24T23:19:16.724Z,0.80
2023-03-24T23:21:45.974Z,1.00
2023-03-24T23:24:13.478Z,1.10
2023-03-24T23:26:42.429Z,1.10
2023-03-24T23:29:10.179Z,0.80
2023-03-24T23:31:37.844Z,0.90
2023-03-24T23:34:07.556Z,0.70
2023-03-24T23:36:35.253Z,0.80
2023-03-24T23:39:03.350Z,0.90
2023-03-24T23:41:32.423Z,0.77
2023-03-24T23:44:01.542Z,1.00
2023-03-24T23:46:29.257Z,0.90
2023-03-24T23:48:57.103Z,0.80
2023-03-24T23:51:24.686Z,0.97
2023-03-24T23:53:52.224Z,0.93
2023-03-24T23:56:22.691Z,0.70
2023-03-24T23:58:52.177Z,1.03
